»·PEaware :: RAKE11 KLSV-KLSV

RAKE11 :: KLSV-KLSV

FLIGHT INFORMATION

Flight Status: Arrived
Operator: Unknown
More flights by this operator :: More flights under this callsign
Pilot: Anonymous 3903 (3903)
Aircraft: NORTHROP F-5 FREEDON FIGHTER
(F5)
More flights by this aircraft type
Origin: KLSV Nellis AFB
United States
Destination: KLSV Nellis AFB
United States
More flights between these airports :: More routes between these airports
Route: +LIVE ORD
File this flight plan on PilotEdge
Remarks:
Altitude:
(Current/Filed)
0ft
Speed:
(Current/Filed)
0kts
Departed: 02-Mar-17 05:21 PM
Arrived: 02-Mar-17 06:12 PM
Distance/Time
Traveled:
1nm/0:51
Distance/Time
To Go:
Arrived

Flight Plot

Page will automatically refresh every two minutes.

Flight plan parsing failed; only flown route is shown


Map Options




Map Legend


Flown Route
Filed Route
Departure Airport
Arrival Airport
Navaid (VOR, NDB)
Fix

Horizontal Profiles

Position Reports

Time Latitude Longitude Heading Altitude Ground
Speed
02-Mar-17 17:03 36.231314 -115.024947 95 1848ft 0kts
02-Mar-17 17:04 36.231314 -115.024947 95 1848ft 0kts
02-Mar-17 17:05 36.231314 -115.024947 95 1848ft 0kts
02-Mar-17 17:06 36.231314 -115.024947 95 1848ft 0kts
02-Mar-17 17:07 36.231314 -115.024947 95 1848ft 0kts
02-Mar-17 17:08 36.231314 -115.024947 95 1848ft 0kts
02-Mar-17 17:09 36.231076 -115.025027 276 1848ft 14kts
02-Mar-17 17:10 36.230746 -115.030901 270 1847ft 21kts
02-Mar-17 17:11 36.226970 -115.035737 220 1847ft 25kts
02-Mar-17 17:12 36.222712 -115.040363 228 1846ft 14kts
02-Mar-17 17:13 36.223738 -115.043164 41 1846ft 0kts
02-Mar-17 17:14 36.223738 -115.043164 41 1846ft 0kts
02-Mar-17 17:15 36.223738 -115.043164 41 1846ft 0kts
02-Mar-17 17:16 36.223738 -115.043164 41 1846ft 0kts
02-Mar-17 17:17 36.223738 -115.043165 41 1846ft 0kts
02-Mar-17 17:18 36.224177 -115.043031 277 1846ft 12kts
02-Mar-17 17:19 36.224425 -115.043334 329 1846ft 0kts
02-Mar-17 17:20 36.224425 -115.043334 329 1846ft 0kts
02-Mar-17 17:21 36.225356 -115.043695 40 1846ft 8kts
02-Mar-17 17:22 36.244477 -115.022961 40 2019ft 211kts
02-Mar-17 17:23 36.306516 -115.000054 333 3105ft 280kts
02-Mar-17 17:24 36.334467 -115.085892 280 6270ft 275kts
02-Mar-17 17:25 36.352647 -115.183054 281 8292ft 308kts
02-Mar-17 17:26 36.360649 -115.281217 239 8194ft 270kts
02-Mar-17 17:27 36.310700 -115.346747 273 8327ft 288kts
02-Mar-17 17:28 36.343987 -115.441913 336 8262ft 329kts
02-Mar-17 17:29 36.432890 -115.483914 339 8252ft 338kts
02-Mar-17 17:30 36.517612 -115.525549 333 8332ft 314kts
02-Mar-17 17:31 36.599724 -115.576236 332 10616ft 344kts
02-Mar-17 17:32 36.698934 -115.574705 12 12347ft 380kts
02-Mar-17 17:33 36.812192 -115.561424 341 12458ft 435kts
02-Mar-17 17:34 36.792667 -115.635157 218 4925ft 463kts
02-Mar-17 17:35 36.858531 -115.651796 95 9278ft 376kts
02-Mar-17 17:36 36.777547 -115.590056 73 9251ft 356kts
02-Mar-17 17:37 36.818702 -115.617995 203 6190ft 451kts
02-Mar-17 17:38 36.753719 -115.646870 19 4978ft 454kts
02-Mar-17 17:39 36.841923 -115.632280 154 6561ft 319kts
02-Mar-17 17:40 36.774533 -115.611777 9 5122ft 364kts
02-Mar-17 17:41 36.848020 -115.594836 60 6651ft 311kts
02-Mar-17 17:42 36.885512 -115.476805 74 8878ft 408kts
02-Mar-17 17:43 36.959502 -115.432174 341 12205ft 386kts
02-Mar-17 17:44 36.916427 -115.549791 226 5993ft 493kts
02-Mar-17 17:45 36.844429 -115.601668 81 7684ft 308kts
02-Mar-17 17:46 36.925640 -115.617476 330 10728ft 343kts
02-Mar-17 17:47 36.986101 -115.707909 290 13944ft 357kts
02-Mar-17 17:48 36.944772 -115.798030 179 15566ft 390kts
02-Mar-17 17:49 36.865279 -115.712551 122 17697ft 390kts
02-Mar-17 17:50 36.809832 -115.592376 113 18090ft 381kts
02-Mar-17 17:51 36.748702 -115.506970 162 18101ft 309kts
02-Mar-17 17:52 36.688356 -115.550697 258 18046ft 264kts
02-Mar-17 17:53 36.713473 -115.629519 337 17298ft 277kts
02-Mar-17 17:54 36.778822 -115.593993 9 17234ft 259kts
02-Mar-17 17:55 36.840288 -115.630261 295 17050ft 223kts
02-Mar-17 17:56 36.813084 -115.701828 199 16959ft 330kts
02-Mar-17 17:57 36.715551 -115.675126 141 17393ft 399kts
02-Mar-17 17:58 36.629044 -115.581685 142 16388ft 433kts
02-Mar-17 17:59 36.547348 -115.503554 141 15549ft 339kts
02-Mar-17 18:00 36.476665 -115.435393 141 15557ft 314kts
02-Mar-17 18:01 36.404313 -115.362510 130 15566ft 349kts
02-Mar-17 18:02 36.345189 -115.275259 96 15097ft 299kts
02-Mar-17 18:03 36.399691 -115.211201 32 12623ft 300kts
02-Mar-17 18:04 36.451290 -115.133874 75 11109ft 300kts
02-Mar-17 18:05 36.457624 -115.030057 94 9537ft 304kts
02-Mar-17 18:06 36.439655 -114.929758 115 9124ft 319kts
02-Mar-17 18:07 36.380880 -114.863427 202 7993ft 260kts
02-Mar-17 18:08 36.335233 -114.921759 226 4946ft 239kts
02-Mar-17 18:09 36.290935 -114.972217 221 3133ft 195kts
02-Mar-17 18:10 36.243426 -115.022207 195 2671ft 239kts
02-Mar-17 18:11 36.250343 -114.974694 4 2928ft 211kts
02-Mar-17 18:12 36.245069 -115.022304 220 1881ft 172kts
02-Mar-17 18:13 36.226718 -115.042329 219 1847ft 38kts
02-Mar-17 18:14 36.223605 -115.042264 130 1846ft 14kts
02-Mar-17 18:15 36.225810 -115.036984 39 1847ft 27kts
02-Mar-17 18:16 36.230746 -115.030792 90 1847ft 21kts
02-Mar-17 18:17 36.231298 -115.024795 274 1849ft 0kts
02-Mar-17 18:18 36.231300 -115.024819 274 1849ft 0kts
02-Mar-17 18:19 36.231300 -115.024819 274 1849ft 0kts
02-Mar-17 18:20 36.231300 -115.024819 274 1849ft 0kts
02-Mar-17 18:21 36.231300 -115.024819 274 1849ft 0kts
02-Mar-17 18:22 36.231300 -115.024819 274 1849ft 0kts
02-Mar-17 18:23 36.231300 -115.024819 274 1849ft 0kts
02-Mar-17 18:24 36.231300 -115.024819 274 1849ft 0kts
02-Mar-17 18:25 36.231300 -115.024819 274 1849ft 0kts
02-Mar-17 18:26 36.231300 -115.024819 274 1849ft 0kts
02-Mar-17 18:27 36.231300 -115.024819 274 1849ft 0kts

Navigation Log

Ident Type
Flight plan parsing failed, navigation log unavailable